Time;durP1;ratioP1;P1;durP2;ratioP2;P2;SDS_P1;SDS_P2;PMS_P1;PMS_P2;Temp;Humidity;BMP_temperature;BMP_pressure;BME280_temperature;BME280_humidity;BME280_pressure;Samples;Min_cycle;Max_cycle;Signal;HPM_P1;HPM_P2
2021/04/27 00:02:18;;;;;;;3.10;1.57;;;5.70;99.90;;;;;;4985148;28;20246;-47
2021/04/27 00:04:46;;;;;;;2.80;1.60;;;5.70;99.90;;;;;;4988573;28;20238;-47
2021/04/27 00:07:14;;;;;;;2.97;1.50;;;5.60;99.90;;;;;;4989639;28;20233;-46
2021/04/27 00:09:41;;;;;;;2.77;1.50;;;5.60;99.90;;;;;;4992908;28;20260;-46
2021/04/27 00:12:10;;;;;;;2.57;1.47;;;5.60;99.90;;;;;;4999765;28;20314;-47
2021/04/27 00:14:38;;;;;;;2.50;1.50;;;5.60;99.90;;;;;;4993395;28;20736;-47
2021/04/27 00:17:06;;;;;;;3.63;1.47;;;5.50;99.90;;;;;;4988355;28;20268;-46
2021/04/27 00:19:33;;;;;;;3.00;2.27;;;5.60;99.90;;;;;;4988817;28;20241;-46
2021/04/27 00:22:01;;;;;;;2.93;1.60;;;5.50;99.90;;;;;;4988288;28;20315;-47
2021/04/27 00:24:31;;;;;;;3.23;1.60;;;5.50;99.90;;;;;;4989251;28;20234;-47
2021/04/27 00:26:59;;;;;;;3.60;2.03;;;5.40;99.90;;;;;;4984903;28;20244;-47
2021/04/27 00:29:28;;;;;;;2.03;1.27;;;5.40;99.90;;;;;;4988499;28;20249;-47
2021/04/27 00:31:56;;;;;;;2.23;1.33;;;5.40;99.90;;;;;;4988174;28;20234;-47
2021/04/27 00:34:23;;;;;;;3.67;1.40;;;5.40;99.90;;;;;;4988780;28;20761;-46
2021/04/27 00:36:50;;;;;;;2.73;1.60;;;5.40;99.90;;;;;;4988116;28;20721;-47
2021/04/27 00:39:18;;;;;;;1.70;1.33;;;5.40;99.90;;;;;;4988668;28;20292;-47
2021/04/27 00:41:45;;;;;;;2.00;1.50;;;5.30;99.90;;;;;;4988041;28;20233;-47
2021/04/27 00:44:13;;;;;;;2.53;1.50;;;5.40;99.90;;;;;;4988980;28;20280;-47
2021/04/27 00:46:41;;;;;;;2.90;1.67;;;5.40;99.90;;;;;;4991916;28;20503;-47
2021/04/27 00:49:08;;;;;;;3.23;1.20;;;5.40;99.90;;;;;;4992479;28;20661;-47
2021/04/27 00:51:36;;;;;;;2.47;1.60;;;5.40;99.90;;;;;;4991103;28;20288;-47
2021/04/27 00:54:06;;;;;;;2.23;1.40;;;5.40;99.90;;;;;;4972662;28;20251;-47
2021/04/27 00:56:34;;;;;;;2.10;1.20;;;5.40;99.90;;;;;;4972229;28;20426;-47
2021/04/27 00:59:02;;;;;;;2.60;1.30;;;5.40;99.90;;;;;;4972560;28;20602;-47
2021/04/27 01:01:30;;;;;;;1.90;1.40;;;5.40;99.90;;;;;;4972565;28;20235;-47
2021/04/27 01:03:59;;;;;;;2.53;1.30;;;5.30;99.90;;;;;;4992954;28;20722;-47
2021/04/27 01:06:27;;;;;;;3.57;1.10;;;5.40;99.90;;;;;;4995014;28;20721;-47
2021/04/27 01:09:01;;;;;;;3.00;1.40;;;5.40;99.90;;;;;;5009452;28;20248;-46
2021/04/27 01:11:40;;;;;;;4.37;1.50;;;5.30;99.90;;;;;;5002094;28;20295;-48
2021/04/27 01:14:11;;;;;;;3.70;1.50;;;5.30;99.90;;;;;;4991580;28;20241;-47
2021/04/27 01:16:43;;;;;;;1.60;1.20;;;5.30;99.90;;;;;;4983919;28;20240;-47
2021/04/27 01:19:20;;;;;;;2.80;1.53;;;5.30;99.90;;;;;;4987594;28;20289;-47
2021/04/27 01:21:52;;;;;;;1.77;1.23;;;5.30;99.90;;;;;;4989966;28;20241;-47
2021/04/27 01:24:26;;;;;;;2.47;1.40;;;5.30;99.90;;;;;;4991839;28;20253;-47
2021/04/27 01:26:58;;;;;;;2.70;1.50;;;5.20;99.90;;;;;;4990081;28;20233;-47
2021/04/27 01:29:29;;;;;;;2.03;1.27;;;5.20;99.90;;;;;;4990424;28;20234;-47
2021/04/27 01:31:59;;;;;;;2.33;1.40;;;5.10;99.90;;;;;;4991341;28;20238;-47
2021/04/27 01:34:30;;;;;;;1.50;1.30;;;5.10;99.90;;;;;;4990248;28;20237;-48
2021/04/27 01:36:58;;;;;;;2.57;1.47;;;5.00;99.90;;;;;;4989495;28;20241;-47
2021/04/27 01:39:28;;;;;;;1.70;1.40;;;5.10;99.90;;;;;;4990173;28;20809;-47
2021/04/27 01:42:00;;;;;;;3.07;1.43;;;5.00;99.90;;;;;;4991337;28;20646;-46
2021/04/27 01:44:28;;;;;;;1.87;1.30;;;5.00;99.90;;;;;;4982549;28;20239;-48
2021/04/27 01:46:56;;;;;;;1.80;1.30;;;5.00;99.90;;;;;;4971431;28;20322;-47
2021/04/27 01:49:25;;;;;;;2.90;1.47;;;5.10;99.90;;;;;;4970418;28;20245;-47
2021/04/27 01:52:11;;;;;;;2.33;1.37;;;5.00;99.90;;;;;;4976254;28;20240;-47
2021/04/27 01:54:46;;;;;;;2.37;1.43;;;5.00;99.90;;;;;;4990791;28;20292;-46
2021/04/27 01:57:17;;;;;;;2.03;1.20;;;4.90;99.90;;;;;;4987120;28;20276;-47
2021/04/27 01:59:46;;;;;;;4.00;1.30;;;5.00;99.90;;;;;;5005617;28;21127;-47
2021/04/27 02:02:20;;;;;;;1.83;1.30;;;5.00;99.90;;;;;;4983897;28;20317;-47
2021/04/27 02:05:04;;;;;;;2.60;1.43;;;5.00;99.90;;;;;;5007260;28;20236;-47
2021/04/27 02:08:04;;;;;;;3.03;1.70;;;4.90;99.90;;;;;;4980821;28;20237;-47
2021/04/27 02:10:35;;;;;;;2.50;1.40;;;4.90;99.90;;;;;;4998800;28;20689;-47
2021/04/27 02:13:10;;;;;;;1.83;1.30;;;4.90;99.90;;;;;;4971484;28;20242;-47
2021/04/27 02:15:41;;;;;;;1.30;1.20;;;4.80;99.90;;;;;;4980436;28;20712;-46
2021/04/27 02:18:17;;;;;;;2.50;1.23;;;4.80;99.90;;;;;;4969604;28;20242;-47
2021/04/27 02:20:46;;;;;;;2.17;1.27;;;4.80;99.90;;;;;;4969071;28;20367;-47
2021/04/27 02:23:42;;;;;;;2.53;1.30;;;4.80;99.90;;;;;;4968862;28;20230;-46
2021/04/27 02:26:14;;;;;;;1.90;1.37;;;4.80;99.90;;;;;;4974563;28;20341;-46
2021/04/27 02:28:47;;;;;;;4.67;1.63;;;4.70;99.90;;;;;;4988940;28;20241;-47
2021/04/27 02:31:16;;;;;;;1.73;1.43;;;4.70;99.90;;;;;;4985444;28;20303;-47
2021/04/27 02:33:44;;;;;;;1.90;1.60;;;4.70;99.90;;;;;;5005264;28;20667;-47
2021/04/27 02:36:13;;;;;;;3.40;1.50;;;4.70;99.90;;;;;;5004734;28;20723;-47
2021/04/27 02:38:53;;;;;;;5.43;1.50;;;4.70;99.90;;;;;;4988622;28;20240;-46
2021/04/27 02:41:22;;;;;;;1.90;1.40;;;4.70;99.90;;;;;;4986440;28;20245;-46
2021/04/27 02:43:50;;;;;;;2.40;1.50;;;4.60;99.90;;;;;;4988797;28;20230;-46
2021/04/27 02:46:18;;;;;;;3.67;1.60;;;4.60;99.90;;;;;;4977123;28;20787;-46
2021/04/27 02:48:52;;;;;;;3.63;1.57;;;4.50;99.90;;;;;;4988367;28;20236;-47
2021/04/27 02:51:23;;;;;;;1.87;1.47;;;4.50;99.90;;;;;;4989653;28;20268;-47
2021/04/27 02:54:05;;;;;;;4.13;1.20;;;4.50;99.90;;;;;;4988394;28;20304;-46
2021/04/27 02:56:34;;;;;;;2.80;1.83;;;4.60;99.90;;;;;;4997180;28;20238;-46
2021/04/27 02:59:04;;;;;;;1.67;1.50;;;4.70;99.90;;;;;;4989140;28;20249;-46
2021/04/27 03:01:33;;;;;;;2.33;1.50;;;4.70;99.90;;;;;;4979710;28;20238;-47
2021/04/27 03:04:07;;;;;;;2.40;1.50;;;4.70;99.90;;;;;;4997428;28;20238;-47
2021/04/27 03:07:01;;;;;;;4.83;1.53;;;4.70;99.90;;;;;;4984776;28;20719;-47
2021/04/27 03:09:41;;;;;;;2.90;1.60;;;4.60;99.90;;;;;;4984075;28;20241;-47
2021/04/27 03:12:09;;;;;;;2.77;1.40;;;4.60;99.90;;;;;;4984781;28;20239;-47
2021/04/27 03:14:40;;;;;;;4.00;1.87;;;4.70;99.90;;;;;;4990781;28;20324;-47
2021/04/27 03:17:08;;;;;;;1.73;1.50;;;4.60;99.90;;;;;;4973539;28;20614;-46
2021/04/27 03:19:44;;;;;;;2.00;1.57;;;4.60;99.90;;;;;;4968640;28;20238;-46
2021/04/27 03:22:20;;;;;;;2.90;1.30;;;4.60;99.90;;;;;;4968335;28;20249;-46
2021/04/27 03:24:49;;;;;;;1.97;1.40;;;4.50;99.90;;;;;;4990050;28;20248;-46
2021/04/27 03:27:16;;;;;;;2.00;1.47;;;4.40;99.90;;;;;;4984422;28;20591;-47
2021/04/27 03:29:56;;;;;;;2.87;1.53;;;4.30;99.90;;;;;;4968391;28;20325;-47
2021/04/27 03:32:24;;;;;;;3.17;1.80;;;4.20;99.90;;;;;;4966924;28;20508;-47
2021/04/27 03:34:52;;;;;;;2.83;1.67;;;4.20;99.90;;;;;;4984641;28;20333;-46
2021/04/27 03:37:20;;;;;;;3.17;1.60;;;4.20;99.90;;;;;;4983582;28;20865;-47
2021/04/27 03:39:49;;;;;;;3.87;1.50;;;4.20;99.90;;;;;;4989117;28;20259;-47
2021/04/27 03:42:17;;;;;;;2.37;1.50;;;4.20;99.90;;;;;;4987650;28;20270;-47
2021/04/27 03:44:47;;;;;;;2.60;1.77;;;4.20;99.90;;;;;;4989140;28;20317;-47
2021/04/27 03:47:17;;;;;;;5.10;1.60;;;4.20;99.90;;;;;;4971733;28;20237;-47
2021/04/27 03:49:44;;;;;;;2.07;1.40;;;4.10;99.90;;;;;;4969610;28;20238;-47
2021/04/27 03:52:12;;;;;;;2.53;1.60;;;4.20;99.90;;;;;;4984252;28;20242;-47
2021/04/27 03:54:39;;;;;;;2.87;1.50;;;4.10;99.90;;;;;;4968489;28;20241;-46
2021/04/27 03:57:07;;;;;;;2.87;1.50;;;4.10;99.90;;;;;;4980084;28;20246;-47
2021/04/27 03:59:44;;;;;;;4.23;1.50;;;4.00;99.90;;;;;;4999219;28;20650;-46
2021/04/27 04:02:11;;;;;;;2.53;1.40;;;4.10;99.90;;;;;;4992573;28;20324;-46
2021/04/27 04:04:40;;;;;;;2.77;1.53;;;4.00;99.90;;;;;;4995626;28;20261;-47
2021/04/27 04:07:29;;;;;;;4.03;1.67;;;4.10;99.90;;;;;;4988288;28;20242;-46
2021/04/27 04:10:20;;;;;;;3.10;1.73;;;4.00;99.90;;;;;;4988315;28;20339;-47
2021/04/27 04:12:48;;;;;;;1.93;1.40;;;4.10;99.90;;;;;;4988752;28;20542;-46
2021/04/27 04:15:19;;;;;;;2.43;1.73;;;4.00;99.90;;;;;;4975496;28;20245;-46
2021/04/27 04:17:52;;;;;;;2.60;1.63;;;4.10;99.90;;;;;;4971290;28;20279;-47
2021/04/27 04:20:23;;;;;;;3.50;1.37;;;4.10;99.90;;;;;;4968617;28;20480;-46
2021/04/27 04:23:09;;;;;;;3.23;1.70;;;4.00;99.90;;;;;;4969180;28;20493;-47
2021/04/27 04:25:37;;;;;;;3.23;1.70;;;4.10;99.90;;;;;;4971958;28;20987;-47
2021/04/27 04:28:05;;;;;;;3.07;1.70;;;4.20;99.90;;;;;;4983377;28;20777;-47
2021/04/27 04:30:33;;;;;;;6.93;1.73;;;4.20;99.90;;;;;;4968463;28;20241;-47
2021/04/27 04:33:33;;;;;;;5.10;1.93;;;4.40;99.90;;;;;;4985408;28;20556;-47
2021/04/27 04:36:19;;;;;;;5.63;2.03;;;4.50;99.90;;;;;;4983746;28;20840;-47
2021/04/27 04:39:06;;;;;;;4.90;2.00;;;4.50;99.90;;;;;;4987910;28;20248;-47
2021/04/27 04:41:51;;;;;;;3.17;1.80;;;4.50;99.90;;;;;;4976258;28;20597;-46
2021/04/27 04:44:37;;;;;;;3.77;1.93;;;4.40;99.90;;;;;;4968155;28;20248;-46
2021/04/27 04:47:23;;;;;;;3.43;1.70;;;4.40;99.90;;;;;;4970620;28;20251;-46
2021/04/27 04:50:13;;;;;;;3.33;1.70;;;4.30;99.90;;;;;;4972283;28;20252;-47
2021/04/27 04:53:00;;;;;;;3.10;1.60;;;4.30;99.90;;;;;;4983529;28;20537;-47
2021/04/27 04:55:57;;;;;;;3.30;1.67;;;4.40;99.90;;;;;;4988355;28;20730;-47
2021/04/27 04:58:36;;;;;;;2.93;1.60;;;4.40;99.90;;;;;;4989941;28;20652;-47
2021/04/27 05:01:06;;;;;;;2.63;1.83;;;4.60;99.90;;;;;;4999699;28;20271;-47
2021/04/27 05:03:33;;;;;;;3.13;1.80;;;4.60;99.90;;;;;;4983576;28;20726;-46
2021/04/27 05:06:20;;;;;;;4.70;1.63;;;4.60;99.90;;;;;;4983854;28;20360;-47
2021/04/27 05:09:10;;;;;;;2.30;1.60;;;4.70;99.90;;;;;;4983889;28;20702;-46
2021/04/27 05:12:05;;;;;;;3.73;1.70;;;4.70;99.90;;;;;;4971063;28;20246;-47
2021/04/27 05:14:41;;;;;;;2.53;1.80;;;4.80;99.90;;;;;;4966025;28;20796;-47
2021/04/27 05:17:14;;;;;;;2.67;1.60;;;4.90;99.90;;;;;;4967157;28;20476;-47
2021/04/27 05:19:42;;;;;;;3.10;1.50;;;5.00;99.90;;;;;;4966894;28;20245;-47
2021/04/27 05:22:10;;;;;;;5.40;1.70;;;5.10;99.90;;;;;;4977518;28;20246;-47
2021/04/27 05:24:40;;;;;;;3.10;1.53;;;5.30;99.90;;;;;;4985394;28;20592;-46
2021/04/27 05:27:20;;;;;;;4.27;2.00;;;5.50;99.90;;;;;;4984597;28;20834;-47
2021/04/27 05:29:47;;;;;;;2.50;1.60;;;5.60;99.90;;;;;;4983306;28;20249;-47
2021/04/27 05:32:15;;;;;;;5.43;1.80;;;5.80;99.90;;;;;;4987958;28;20241;-47
2021/04/27 05:34:43;;;;;;;4.50;1.70;;;5.90;99.90;;;;;;4988383;28;20589;-48
2021/04/27 05:37:10;;;;;;;3.53;1.60;;;6.10;99.90;;;;;;4988041;28;20332;-47
2021/04/27 05:39:39;;;;;;;2.90;1.80;;;6.20;99.90;;;;;;4987826;28;20242;-47
2021/04/27 05:42:07;;;;;;;2.43;2.07;;;6.40;99.90;;;;;;4978104;28;21053;-48
2021/04/27 05:44:34;;;;;;;3.47;1.60;;;6.50;99.90;;;;;;4968938;28;20259;-48
2021/04/27 05:47:02;;;;;;;2.47;1.47;;;6.60;99.90;;;;;;4968942;28;20273;-47
2021/04/27 05:49:30;;;;;;;5.63;1.57;;;6.80;99.90;;;;;;4969599;28;20253;-48
2021/04/27 05:51:57;;;;;;;3.53;1.67;;;6.90;99.90;;;;;;4980735;28;20311;-47
2021/04/27 05:54:24;;;;;;;5.63;1.50;;;7.00;99.90;;;;;;5007896;28;20697;-47
2021/04/27 05:56:52;;;;;;;2.13;1.50;;;7.20;99.90;;;;;;4996874;28;20240;-47
2021/04/27 05:59:20;;;;;;;4.93;1.90;;;7.40;99.90;;;;;;4999974;28;20246;-48
2021/04/27 06:01:49;;;;;;;8.47;1.63;;;7.60;99.90;;;;;;4974784;28;20232;-48
2021/04/27 06:04:17;;;;;;;2.77;1.30;;;7.70;99.90;;;;;;4972161;28;20242;-48
2021/04/27 06:06:44;;;;;;;3.73;1.60;;;7.90;99.90;;;;;;4969629;28;20249;-47
2021/04/27 06:09:13;;;;;;;3.47;1.40;;;8.00;99.90;;;;;;4970014;28;20250;-47
2021/04/27 06:11:43;;;;;;;4.73;1.37;;;8.10;99.90;;;;;;4970844;28;20317;-47
2021/04/27 06:14:12;;;;;;;1.57;1.23;;;8.30;99.90;;;;;;4971360;28;20242;-47
2021/04/27 06:16:40;;;;;;;1.93;1.30;;;8.30;99.90;;;;;;4971117;28;20243;-48
2021/04/27 06:19:07;;;;;;;3.50;1.97;;;8.60;99.90;;;;;;4970898;28;20245;-49
2021/04/27 06:21:34;;;;;;;4.23;1.73;;;8.70;99.90;;;;;;4983693;28;20715;-47
2021/04/27 06:24:02;;;;;;;5.37;1.70;;;8.70;99.90;;;;;;4991089;28;20241;-48
2021/04/27 06:26:30;;;;;;;3.70;1.50;;;8.90;99.90;;;;;;4990483;28;20229;-47
2021/04/27 06:28:57;;;;;;;2.07;1.40;;;9.00;99.90;;;;;;4990139;28;20288;-47
2021/04/27 06:31:25;;;;;;;3.00;1.57;;;9.20;99.90;;;;;;4977980;28;20431;-47
2021/04/27 06:33:53;;;;;;;2.80;1.43;;;9.40;99.90;;;;;;4970972;28;20267;-47
2021/04/27 06:36:22;;;;;;;3.20;1.60;;;9.60;99.90;;;;;;4971377;28;20298;-47
2021/04/27 06:38:50;;;;;;;2.27;1.50;;;9.70;99.90;;;;;;4970451;28;20235;-49
2021/04/27 06:41:17;;;;;;;5.33;1.53;;;9.60;99.90;;;;;;4981056;28;20606;-47
2021/04/27 06:43:45;;;;;;;6.60;1.53;;;9.40;99.90;;;;;;4989863;28;20244;-48
2021/04/27 06:46:12;;;;;;;2.53;1.30;;;9.60;99.90;;;;;;4990187;28;20228;-47
2021/04/27 06:48:41;;;;;;;3.53;1.60;;;9.80;99.90;;;;;;4986706;28;20234;-47
2021/04/27 06:51:09;;;;;;;3.70;1.57;;;9.90;99.90;;;;;;4981784;28;20234;-47
2021/04/27 06:53:37;;;;;;;2.30;1.47;;;10.20;99.90;;;;;;4991017;28;20237;-47
2021/04/27 06:56:05;;;;;;;3.30;1.70;;;10.30;99.90;;;;;;5005443;28;20244;-47
2021/04/27 06:58:32;;;;;;;2.87;1.40;;;10.30;99.90;;;;;;4970168;28;20347;-48
2021/04/27 07:01:00;;;;;;;2.97;1.27;;;10.30;99.90;;;;;;4977552;28;20765;-47
2021/04/27 07:03:27;;;;;;;1.90;1.47;;;10.20;99.90;;;;;;4989889;28;20337;-48
2021/04/27 07:05:55;;;;;;;3.33;1.30;;;10.40;99.90;;;;;;4989892;28;20235;-47
2021/04/27 07:08:23;;;;;;;5.00;1.50;;;10.60;99.90;;;;;;4989590;28;20786;-47
2021/04/27 07:10:56;;;;;;;4.07;1.30;;;10.90;99.90;;;;;;4981846;28;20243;-47
2021/04/27 07:13:25;;;;;;;4.23;1.70;;;11.00;99.90;;;;;;4970209;28;20238;-47
2021/04/27 07:15:53;;;;;;;2.00;1.40;;;11.10;99.90;;;;;;4970306;28;20263;-47
2021/04/27 07:18:20;;;;;;;4.33;1.50;;;11.20;99.90;;;;;;4970214;28;20243;-48
2021/04/27 07:20:48;;;;;;;3.07;1.30;;;11.40;99.90;;;;;;4988576;28;20250;-48
2021/04/27 07:23:16;;;;;;;4.10;1.70;;;11.40;99.90;;;;;;4989561;28;20254;-48
2021/04/27 07:25:44;;;;;;;4.40;1.57;;;11.60;99.90;;;;;;4989514;28;20642;-47
2021/04/27 07:28:12;;;;;;;4.33;1.27;;;11.80;99.90;;;;;;4985516;28;20242;-47
2021/04/27 07:30:40;;;;;;;1.93;1.40;;;11.80;99.00;;;;;;4988438;28;20232;-47
2021/04/27 07:33:07;;;;;;;2.23;1.30;;;12.00;97.70;;;;;;4989415;28;20244;-47
2021/04/27 07:35:35;;;;;;;1.43;1.07;;;12.20;97.40;;;;;;4989147;28;20723;-47
2021/04/27 07:38:04;;;;;;;2.20;1.40;;;12.20;96.20;;;;;;4988763;28;20249;-48
2021/04/27 07:40:36;;;;;;;2.57;1.17;;;12.30;96.30;;;;;;4970817;28;20709;-47
2021/04/27 07:43:04;;;;;;;3.00;1.30;;;12.40;95.80;;;;;;4969727;28;20244;-47
2021/04/27 07:45:33;;;;;;;4.80;1.30;;;12.40;94.60;;;;;;4979021;28;20235;-47
2021/04/27 07:48:05;;;;;;;3.00;1.50;;;12.40;93.60;;;;;;4985122;28;20264;-47
2021/04/27 07:50:33;;;;;;;3.57;1.30;;;12.60;94.10;;;;;;4995056;28;20607;-47
2021/04/27 07:53:01;;;;;;;2.17;1.27;;;12.90;93.30;;;;;;5000455;28;20233;-48
2021/04/27 07:55:29;;;;;;;2.20;1.23;;;12.70;92.10;;;;;;5007919;28;20233;-48
2021/04/27 07:58:04;;;;;;;2.07;1.40;;;13.10;93.00;;;;;;5008271;28;20300;-48
2021/04/27 08:00:31;;;;;;;2.17;1.20;;;13.30;92.20;;;;;;4990029;28;20244;-48
2021/04/27 08:02:59;;;;;;;4.27;1.57;;;13.20;90.80;;;;;;4989121;28;20264;-48
2021/04/27 08:05:27;;;;;;;4.03;1.40;;;12.90;90.90;;;;;;4988616;28;20271;-47
2021/04/27 08:07:54;;;;;;;2.27;1.40;;;12.90;90.90;;;;;;4988511;28;20245;-48
2021/04/27 08:10:22;;;;;;;2.10;1.20;;;12.80;90.70;;;;;;4973074;28;20276;-48
2021/04/27 08:12:51;;;;;;;3.60;1.10;;;13.00;90.50;;;;;;4969010;28;20234;-48
2021/04/27 08:15:23;;;;;;;2.47;1.10;;;13.30;90.00;;;;;;4986087;28;20242;-48
2021/04/27 08:17:51;;;;;;;2.27;1.23;;;13.40;88.00;;;;;;4988398;28;20716;-47
2021/04/27 08:20:19;;;;;;;3.27;1.30;;;13.30;86.90;;;;;;4973072;28;20773;-48
2021/04/27 08:22:48;;;;;;;2.10;1.20;;;13.50;86.60;;;;;;4969060;28;20241;-48
2021/04/27 08:25:18;;;;;;;3.03;1.30;;;13.40;85.20;;;;;;4969643;28;20785;-48
2021/04/27 08:27:46;;;;;;;3.37;1.40;;;13.60;85.50;;;;;;4968688;28;20234;-48
2021/04/27 08:30:17;;;;;;;1.93;1.10;;;13.30;81.40;;;;;;4982110;28;20245;-48
2021/04/27 08:32:45;;;;;;;2.50;1.37;;;13.10;82.20;;;;;;4987681;28;20307;-48
2021/04/27 08:35:13;;;;;;;2.37;1.10;;;13.20;81.90;;;;;;4987851;28;20618;-48
2021/04/27 08:37:41;;;;;;;2.27;1.50;;;13.30;81.30;;;;;;4985109;28;20677;-48
2021/04/27 08:40:13;;;;;;;4.07;1.50;;;13.50;81.70;;;;;;4986785;28;20268;-48
2021/04/27 08:42:40;;;;;;;2.50;1.30;;;13.50;79.00;;;;;;4968382;28;20262;-48
2021/04/27 08:45:10;;;;;;;4.50;1.40;;;13.50;80.50;;;;;;4982758;28;20248;-48
2021/04/27 08:47:38;;;;;;;3.00;1.17;;;13.50;82.50;;;;;;4987494;28;20585;-48
2021/04/27 08:50:11;;;;;;;1.23;0.90;;;13.90;82.10;;;;;;4996005;28;20245;-48
2021/04/27 08:52:39;;;;;;;2.97;0.97;;;14.30;79.70;;;;;;4968622;28;20651;-48
2021/04/27 08:55:09;;;;;;;2.90;1.20;;;14.60;79.00;;;;;;4969455;28;20237;-49
2021/04/27 08:57:37;;;;;;;2.60;1.40;;;14.40;75.90;;;;;;4972802;28;20256;-48
2021/04/27 09:00:08;;;;;;;2.50;1.20;;;14.40;77.60;;;;;;4987682;28;20249;-48
2021/04/27 09:02:36;;;;;;;1.90;1.17;;;14.30;76.40;;;;;;4986288;28;20249;-48
2021/04/27 09:05:05;;;;;;;3.77;1.13;;;14.40;75.40;;;;;;4989579;28;20253;-48
2021/04/27 09:07:43;;;;;;;2.73;1.20;;;14.10;74.70;;;;;;4991311;28;20248;-48
2021/04/27 09:10:16;;;;;;;1.93;1.20;;;14.30;75.90;;;;;;4991536;28;20772;-48
2021/04/27 09:12:52;;;;;;;3.30;1.13;;;14.40;76.00;;;;;;4983602;28;20706;-47
2021/04/27 09:15:30;;;;;;;2.57;1.30;;;14.10;70.60;;;;;;4972818;28;20737;-48
2021/04/27 09:17:58;;;;;;;1.40;1.30;;;14.20;73.30;;;;;;4972005;28;20239;-48
2021/04/27 09:20:25;;;;;;;2.53;1.17;;;14.10;71.80;;;;;;4971473;28;20241;-48
2021/04/27 09:23:09;;;;;;;1.43;1.10;;;14.40;73.60;;;;;;4980877;28;20331;-48
2021/04/27 09:25:36;;;;;;;2.10;1.37;;;14.90;71.40;;;;;;4988351;28;20288;-48
2021/04/27 09:28:04;;;;;;;1.37;1.20;;;14.70;70.80;;;;;;4991682;28;20752;-48
2021/04/27 09:30:31;;;;;;;1.50;1.20;;;14.70;72.30;;;;;;4991121;28;20242;-48
2021/04/27 09:33:01;;;;;;;1.70;0.97;;;15.10;73.60;;;;;;5006001;28;20240;-48
2021/04/27 09:35:33;;;;;;;1.77;1.40;;;15.20;70.00;;;;;;4991475;28;20575;-48
2021/04/27 09:38:17;;;;;;;3.63;1.10;;;15.20;71.60;;;;;;4991459;28;20244;-48
2021/04/27 09:40:55;;;;;;;2.33;1.27;;;15.10;71.20;;;;;;4990400;28;20233;-48
2021/04/27 09:43:29;;;;;;;3.13;1.40;;;15.70;71.90;;;;;;5000096;28;20247;-48
2021/04/27 09:46:00;;;;;;;2.83;1.43;;;16.20;70.00;;;;;;4993520;28;20245;-48
2021/04/27 09:48:36;;;;;;;2.17;1.07;;;15.90;68.50;;;;;;4998012;28;20234;-48
2021/04/27 09:51:27;;;;;;;3.47;1.30;;;15.80;67.40;;;;;;4971507;28;20318;-48
2021/04/27 09:54:07;;;;;;;2.50;1.20;;;16.00;69.10;;;;;;4989366;28;20353;-48
2021/04/27 09:56:44;;;;;;;1.90;1.37;;;16.10;68.80;;;;;;4990704;28;20744;-47
2021/04/27 09:59:13;;;;;;;3.20;1.30;;;16.00;66.80;;;;;;4990553;28;20249;-48
2021/04/27 10:01:47;;;;;;;2.23;1.60;;;15.90;68.50;;;;;;4990495;28;20777;-47
2021/04/27 10:04:18;;;;;;;1.97;1.20;;;15.50;68.40;;;;;;4971430;28;20580;-48
2021/04/27 10:06:46;;;;;;;2.03;1.27;;;15.90;70.00;;;;;;4971099;28;20234;-48
2021/04/27 10:09:15;;;;;;;3.60;1.43;;;16.40;69.20;;;;;;4971442;28;20299;-47
2021/04/27 10:11:43;;;;;;;2.43;1.53;;;16.60;69.40;;;;;;4971176;28;20329;-48
2021/04/27 10:14:12;;;;;;;1.90;1.20;;;16.30;66.60;;;;;;4989844;28;20243;-48
2021/04/27 10:16:40;;;;;;;1.73;1.20;;;15.90;67.20;;;;;;4990191;28;20693;-48
2021/04/27 10:19:12;;;;;;;4.07;1.47;;;15.90;68.70;;;;;;4990550;28;20260;-48
2021/04/27 10:21:40;;;;;;;1.57;1.10;;;16.10;67.50;;;;;;4990427;28;20596;-48
2021/04/27 10:24:13;;;;;;;4.47;1.40;;;16.40;68.40;;;;;;4973013;28;20248;-48
2021/04/27 10:26:46;;;;;;;2.90;1.50;;;16.90;68.10;;;;;;4970942;28;20294;-48
2021/04/27 10:29:17;;;;;;;5.10;1.70;;;17.10;65.40;;;;;;4970882;28;20247;-48
2021/04/27 10:31:47;;;;;;;2.53;1.60;;;16.60;64.80;;;;;;4970965;28;20594;-47
2021/04/27 10:34:17;;;;;;;4.07;1.70;;;15.80;64.20;;;;;;4988873;28;20255;-47
2021/04/27 10:37:06;;;;;;;1.93;1.40;;;15.80;66.60;;;;;;4990217;28;20796;-48
2021/04/27 10:39:39;;;;;;;4.33;1.50;;;16.40;67.50;;;;;;4985040;28;20239;-48
2021/04/27 10:42:19;;;;;;;3.33;1.47;;;16.60;66.20;;;;;;4990513;28;20249;-48
2021/04/27 10:44:52;;;;;;;3.00;1.40;;;16.20;65.00;;;;;;4984695;28;20242;-48
2021/04/27 10:47:21;;;;;;;3.00;1.80;;;16.20;65.30;;;;;;4980365;28;20246;-48
2021/04/27 10:49:49;;;;;;;3.43;1.50;;;16.40;64.50;;;;;;4978809;28;20318;-49
2021/04/27 10:52:30;;;;;;;4.23;1.10;;;16.50;63.70;;;;;;4972801;28;20243;-48
2021/04/27 10:55:27;;;;;;;2.20;1.20;;;16.60;66.70;;;;;;4970781;28;20276;-48
2021/04/27 10:57:58;;;;;;;3.70;1.23;;;17.20;65.50;;;;;;4970090;28;20320;-48
2021/04/27 11:00:46;;;;;;;2.47;1.13;;;17.50;62.50;;;;;;4979256;28;20894;-49
2021/04/27 11:03:18;;;;;;;2.50;1.60;;;17.50;63.80;;;;;;4983252;28;20242;-48
2021/04/27 11:06:09;;;;;;;3.47;1.53;;;17.20;64.60;;;;;;4983561;28;20726;-48
2021/04/27 11:08:46;;;;;;;3.20;1.43;;;16.60;67.10;;;;;;4989546;28;20240;-48
2021/04/27 11:11:20;;;;;;;3.80;1.40;;;16.40;64.70;;;;;;4989431;28;20250;-48
2021/04/27 11:13:49;;;;;;;1.50;1.20;;;16.70;64.80;;;;;;4989320;28;20235;-48
2021/04/27 11:16:29;;;;;;;5.70;1.70;;;17.00;64.90;;;;;;4987483;28;20228;-48
2021/04/27 11:19:43;;;;;;;4.30;1.47;;;16.80;63.60;;;;;;4969997;28;20321;-49
2021/04/27 11:22:33;;;;;;;2.43;1.40;;;17.00;65.80;;;;;;4957760;28;20307;-49
2021/04/27 11:25:03;;;;;;;2.87;1.50;;;16.90;65.60;;;;;;4969201;28;20244;-49
2021/04/27 11:27:33;;;;;;;4.13;1.50;;;16.40;66.30;;;;;;4969712;28;20244;-48
2021/04/27 11:30:08;;;;;;;4.03;1.57;;;16.50;67.30;;;;;;4968706;28;20247;-51
2021/04/27 11:32:38;;;;;;;4.20;1.47;;;16.90;66.50;;;;;;4986461;28;20245;-48
2021/04/27 11:35:14;;;;;;;3.30;1.47;;;16.90;66.40;;;;;;4988709;28;20738;-48
2021/04/27 11:37:45;;;;;;;2.77;1.30;;;16.50;67.60;;;;;;4994632;28;20751;-48
2021/04/27 11:40:28;;;;;;;4.43;1.57;;;16.80;67.70;;;;;;4994335;28;20280;-48
2021/04/27 11:43:00;;;;;;;1.70;1.40;;;15.80;67.70;;;;;;4971330;28;20272;-48
2021/04/27 11:45:31;;;;;;;1.97;1.50;;;15.70;70.60;;;;;;4970514;28;20318;-48
2021/04/27 11:47:59;;;;;;;1.70;1.33;;;15.90;69.70;;;;;;4969516;28;20244;-48
2021/04/27 11:50:28;;;;;;;1.67;1.17;;;15.60;70.70;;;;;;4977709;28;20249;-48
2021/04/27 11:53:02;;;;;;;3.00;1.30;;;16.00;70.40;;;;;;4977919;28;20299;-48
2021/04/27 11:55:37;;;;;;;2.07;1.47;;;15.90;70.20;;;;;;4977784;28;20243;-48
2021/04/27 11:58:08;;;;;;;3.57;1.30;;;15.30;70.80;;;;;;4968917;28;20287;-48
2021/04/27 12:00:54;;;;;;;2.97;1.60;;;15.50;71.20;;;;;;4972033;28;20239;-48
2021/04/27 12:03:28;;;;;;;2.23;1.20;;;15.30;69.80;;;;;;4985990;28;20228;-48
2021/04/27 12:06:11;;;;;;;2.63;1.43;;;14.90;71.10;;;;;;4972401;28;20246;-48
2021/04/27 12:08:41;;;;;;;3.40;1.20;;;15.10;72.40;;;;;;4969582;28;20237;-48
2021/04/27 12:11:17;;;;;;;2.50;1.47;;;15.20;72.90;;;;;;4969849;28;20254;-49
2021/04/27 12:13:48;;;;;;;2.03;1.40;;;15.20;71.30;;;;;;4969650;28;21118;-48
2021/04/27 12:16:18;;;;;;;3.73;1.40;;;15.30;72.00;;;;;;4973825;28;20250;-48
2021/04/27 12:19:01;;;;;;;2.33;1.90;;;15.40;72.20;;;;;;4971844;28;20663;-48
2021/04/27 12:21:37;;;;;;;2.90;1.10;;;15.40;70.80;;;;;;4968913;28;20711;-48
2021/04/27 12:24:24;;;;;;;2.20;1.40;;;15.00;71.40;;;;;;4972084;28;20332;-48
2021/04/27 12:27:00;;;;;;;2.33;1.30;;;14.50;74.00;;;;;;4968258;28;20251;-49
2021/04/27 12:29:31;;;;;;;2.33;1.40;;;14.70;73.60;;;;;;4967369;28;20272;-48
2021/04/27 12:32:08;;;;;;;1.33;1.23;;;14.70;71.20;;;;;;4973418;28;20239;-48
2021/04/27 12:34:37;;;;;;;2.63;1.50;;;14.70;71.80;;;;;;4991151;28;20256;-48
2021/04/27 12:37:04;;;;;;;6.57;1.40;;;14.70;72.60;;;;;;4971769;28;20620;-48
2021/04/27 12:39:35;;;;;;;1.87;1.27;;;14.60;71.60;;;;;;4971999;28;20246;-48
2021/04/27 12:42:18;;;;;;;2.87;1.37;;;14.50;72.40;;;;;;4977224;28;20243;-48
2021/04/27 12:44:55;;;;;;;2.17;1.20;;;14.60;71.40;;;;;;4982021;28;20237;-48
2021/04/27 12:47:25;;;;;;;1.30;1.20;;;14.80;70.20;;;;;;4987525;28;20421;-48
2021/04/27 12:50:05;;;;;;;3.17;1.20;;;14.60;70.30;;;;;;4972665;28;20318;-48
2021/04/27 12:52:35;;;;;;;4.70;1.30;;;14.70;72.10;;;;;;4972715;28;20810;-47
2021/04/27 12:55:07;;;;;;;3.07;1.57;;;14.90;70.40;;;;;;4980845;28;20272;-48
2021/04/27 12:57:35;;;;;;;2.17;1.20;;;14.50;70.60;;;;;;4988531;28;20243;-47
2021/04/27 13:00:08;;;;;;;1.73;1.20;;;14.50;71.50;;;;;;4985545;28;20714;-48
2021/04/27 13:02:37;;;;;;;2.13;1.33;;;14.50;72.30;;;;;;4971604;28;20234;-48
2021/04/27 13:05:09;;;;;;;2.90;1.50;;;14.30;71.70;;;;;;4972206;28;20239;-48
2021/04/27 13:07:41;;;;;;;3.37;1.30;;;14.30;69.70;;;;;;4973553;28;20246;-48
2021/04/27 13:10:13;;;;;;;3.23;1.33;;;14.10;70.70;;;;;;4982862;28;20238;-48
2021/04/27 13:12:45;;;;;;;1.80;1.10;;;14.20;69.50;;;;;;4988720;28;20648;-47
2021/04/27 13:15:20;;;;;;;3.70;1.43;;;14.10;69.20;;;;;;4984879;28;20598;-50
2021/04/27 13:17:58;;;;;;;2.87;1.50;;;14.00;71.60;;;;;;4979504;28;20234;-50
2021/04/27 13:20:28;;;;;;;3.00;1.30;;;14.10;71.30;;;;;;4986528;28;20329;-48